createdAt,value
2022-09-23T00:04:43.583Z,6.40
2022-09-23T00:09:42.894Z,6.30
2022-09-23T00:14:43.071Z,6.30
2022-09-23T00:19:44.668Z,6.20
2022-09-23T00:24:43.395Z,6.20
2022-09-23T00:29:42.716Z,6.16
2022-09-23T00:34:41.612Z,6.10
2022-09-23T00:39:41.282Z,6.10
2022-09-23T00:44:55.907Z,6.00
2022-09-23T00:50:05.100Z,6.00
2022-09-23T00:55:10.147Z,6.00
2022-09-23T01:00:12.993Z,6.00
2022-09-23T01:05:14.839Z,6.00
2022-09-23T01:10:17.375Z,6.10
2022-09-23T01:15:23.268Z,6.10
2022-09-23T01:20:49.607Z,6.18
2022-09-23T01:26:09.319Z,6.22
2022-09-23T01:31:18.906Z,6.30
2022-09-23T01:36:29.059Z,6.34
2022-09-23T01:41:51.956Z,6.40
2022-09-23T01:46:56.944Z,6.50
2022-09-23T01:52:07.976Z,6.50
2022-09-23T01:57:16.824Z,6.60
2022-09-23T02:02:22.496Z,6.60
2022-09-23T02:07:28.767Z,6.60
2022-09-23T02:12:35.495Z,6.60
2022-09-23T02:17:43.869Z,6.60
2022-09-23T02:22:52.820Z,6.60
2022-09-23T02:28:02.248Z,6.54
2022-09-23T02:33:10.304Z,6.50
2022-09-23T02:38:26.192Z,6.50
2022-09-23T02:43:40.410Z,6.48
2022-09-23T02:48:44.406Z,6.50
2022-09-23T02:53:46.147Z,6.50
2022-09-23T02:58:47.143Z,6.50
2022-09-23T03:03:57.425Z,6.56
2022-09-23T03:09:05.488Z,6.60
2022-09-23T03:14:18.096Z,6.70
2022-09-23T03:19:30.025Z,6.70
2022-09-23T03:24:32.280Z,6.72
2022-09-23T03:29:32.353Z,6.80
2022-09-23T03:34:36.764Z,6.80
2022-09-23T03:39:43.041Z,6.80
2022-09-23T03:44:46.549Z,6.76
2022-09-23T03:49:48.488Z,6.70
2022-09-23T03:54:48.027Z,6.70
2022-09-23T03:59:47.123Z,6.60
2022-09-23T04:04:47.131Z,6.52
2022-09-23T04:09:46.329Z,6.48
2022-09-23T04:14:46.428Z,6.40
2022-09-23T04:19:47.109Z,6.30
2022-09-23T04:24:46.361Z,6.20
2022-09-23T04:29:46.724Z,6.20
2022-09-23T04:34:45.596Z,6.10
2022-09-23T04:39:44.413Z,6.08
2022-09-23T04:44:43.542Z,6.00
2022-09-23T04:49:42.383Z,6.00
2022-09-23T04:54:41.865Z,5.90
2022-09-23T04:59:41.447Z,5.90
2022-09-23T05:04:41.815Z,5.90
2022-09-23T05:09:41.639Z,5.98
2022-09-23T05:14:41.971Z,6.00
2022-09-23T05:19:41.772Z,6.00
2022-09-23T05:24:40.712Z,6.10
2022-09-23T05:29:40.601Z,6.10
2022-09-23T05:34:40.253Z,6.20
2022-09-23T05:39:39.310Z,6.24
2022-09-23T05:44:38.262Z,6.30
2022-09-23T05:49:58.059Z,6.40
2022-09-23T05:54:56.551Z,6.60
2022-09-23T05:59:56.154Z,6.70
2022-09-23T06:04:55.129Z,6.90
2022-09-23T06:09:55.920Z,7.00
2022-09-23T06:14:55.359Z,7.20
2022-09-23T06:19:54.295Z,7.40
2022-09-23T06:24:52.898Z,7.60
2022-09-23T06:29:52.734Z,7.80
2022-09-23T06:34:52.568Z,7.90
2022-09-23T06:39:58.990Z,8.00
2022-09-23T06:45:17.933Z,8.10
2022-09-23T06:50:24.235Z,8.20
2022-09-23T06:55:23.806Z,8.40
2022-09-23T07:00:23.775Z,8.60
2022-09-23T07:05:23.219Z,8.80
2022-09-23T07:10:22.971Z,9.00
2022-09-23T07:15:22.041Z,9.20
2022-09-23T07:20:21.598Z,9.40
2022-09-23T07:25:20.485Z,9.60
2022-09-23T07:30:25.192Z,9.80
2022-09-23T07:35:28.268Z,10.04
2022-09-23T07:40:27.757Z,10.20
2022-09-23T07:45:26.963Z,10.40
2022-09-23T07:50:25.999Z,10.52
2022-09-23T07:55:25.814Z,10.64
2022-09-23T08:00:24.734Z,10.80
2022-09-23T08:05:24.474Z,10.94
2022-09-23T08:10:23.694Z,11.12
2022-09-23T08:15:24.708Z,11.30
2022-09-23T08:20:37.653Z,11.50
2022-09-23T08:25:37.168Z,11.70
2022-09-23T08:30:40.348Z,11.80
2022-09-23T08:35:40.941Z,12.00
2022-09-23T08:40:44.684Z,12.12
2022-09-23T08:45:46.078Z,12.30
2022-09-23T08:50:50.232Z,12.40
2022-09-23T08:55:53.706Z,12.50
2022-09-23T09:01:08.073Z,12.60
2022-09-23T09:06:08.506Z,12.70
2022-09-23T09:11:09.791Z,12.90
2022-09-23T09:16:57.965Z,13.10
2022-09-23T09:21:55.816Z,13.24
2022-09-23T09:26:55.215Z,13.54
2022-09-23T09:31:56.543Z,13.90
2022-09-23T09:37:07.549Z,13.80
2022-09-23T09:42:07.978Z,13.80
2022-09-23T09:47:41.534Z,14.04
2022-09-23T09:52:43.389Z,14.28
2022-09-23T09:57:49.787Z,14.80
2022-09-23T10:02:53.054Z,15.30
2022-09-23T10:07:51.761Z,15.60
2022-09-23T10:12:52.223Z,15.72
2022-09-23T10:17:54.908Z,16.10
2022-09-23T10:22:56.918Z,16.40
2022-09-23T10:27:55.789Z,16.44
2022-09-23T10:32:57.275Z,16.30
2022-09-23T10:37:59.549Z,16.30
2022-09-23T10:43:42.047Z,16.30
2022-09-23T10:49:01.071Z,16.60
2022-09-23T10:54:10.971Z,16.50
2022-09-23T10:59:43.227Z,16.70
2022-09-23T11:05:20.346Z,16.80
2022-09-23T11:11:00.666Z,17.04
2022-09-23T11:16:10.659Z,17.70
2022-09-23T11:21:32.281Z,17.86
2022-09-23T11:26:53.216Z,17.40
2022-09-23T11:32:08.384Z,17.40
2022-09-23T11:37:14.160Z,17.24
2022-09-23T11:42:24.159Z,16.90
2022-09-23T11:47:30.860Z,16.50
2022-09-23T11:52:37.183Z,16.00
2022-09-23T11:57:49.156Z,15.70
2022-09-23T12:03:06.594Z,16.04
2022-09-23T12:08:14.532Z,16.72
2022-09-23T12:13:22.977Z,17.52
2022-09-23T12:18:57.036Z,18.00
2022-09-23T12:24:21.081Z,17.82
2022-09-23T12:29:20.004Z,17.44
2022-09-23T12:34:31.931Z,17.04
2022-09-23T12:39:37.506Z,17.36
2022-09-23T12:44:42.454Z,17.80
2022-09-23T12:49:42.498Z,18.54
2022-09-23T12:54:42.976Z,19.26
2022-09-23T13:00:01.722Z,20.00
2022-09-23T13:05:28.797Z,20.64
2022-09-23T13:10:40.183Z,21.30
2022-09-23T13:15:41.350Z,21.24
2022-09-23T13:20:43.764Z,20.64
2022-09-23T13:25:47.097Z,19.70
2022-09-23T13:30:54.547Z,18.92
2022-09-23T13:35:58.843Z,18.20
2022-09-23T13:41:02.104Z,17.52
2022-09-23T13:46:05.394Z,16.90
2022-09-23T13:51:12.590Z,16.20
2022-09-23T13:56:16.592Z,15.76
2022-09-23T14:01:33.446Z,15.58
2022-09-23T14:06:40.677Z,15.88
2022-09-23T14:11:40.539Z,16.40
2022-09-23T14:16:42.530Z,16.50
2022-09-23T14:21:43.553Z,16.40
2022-09-23T14:26:44.190Z,16.40
2022-09-23T14:31:44.513Z,16.40
2022-09-23T14:37:01.403Z,16.40
2022-09-23T14:42:00.912Z,16.30
2022-09-23T14:47:03.211Z,16.22
2022-09-23T14:52:08.331Z,16.30
2022-09-23T14:57:29.480Z,16.20
2022-09-23T15:02:37.299Z,16.00
2022-09-23T15:07:39.542Z,15.80
2022-09-23T15:12:44.577Z,15.70
2022-09-23T15:17:43.896Z,15.60
2022-09-23T15:22:50.178Z,15.40
2022-09-23T15:28:03.502Z,15.24
2022-09-23T15:33:03.296Z,15.20
2022-09-23T15:38:04.514Z,15.10
2022-09-23T15:43:20.525Z,15.06
2022-09-23T15:48:24.189Z,15.10
2022-09-23T15:53:30.209Z,15.00
2022-09-23T15:58:30.205Z,14.90
2022-09-23T16:03:30.077Z,14.76
2022-09-23T16:08:29.714Z,14.70
2022-09-23T16:13:29.249Z,14.60
2022-09-23T16:18:31.323Z,14.44
2022-09-23T16:23:41.487Z,14.20
2022-09-23T16:28:50.132Z,13.90
2022-09-23T16:33:51.504Z,13.62
2022-09-23T16:38:55.681Z,13.40
2022-09-23T16:43:55.806Z,13.20
2022-09-23T16:48:57.420Z,13.00
2022-09-23T16:53:59.458Z,12.80
2022-09-23T16:59:04.368Z,12.60
2022-09-23T17:04:06.866Z,12.50
2022-09-23T17:09:10.248Z,12.36
2022-09-23T17:14:13.121Z,12.30
2022-09-23T17:19:14.225Z,12.20
2022-09-23T17:24:15.847Z,12.20
2022-09-23T17:29:18.807Z,12.20
2022-09-23T17:34:21.129Z,12.20
2022-09-23T17:39:26.127Z,12.20
2022-09-23T17:44:25.297Z,12.20
2022-09-23T17:49:34.903Z,12.20
2022-09-23T17:54:36.212Z,12.20
2022-09-23T17:59:46.604Z,12.20
2022-09-23T18:04:48.843Z,12.20
2022-09-23T18:09:52.787Z,12.20
2022-09-23T18:14:53.230Z,12.10
2022-09-23T18:19:52.417Z,12.10
2022-09-23T18:24:51.783Z,12.00
2022-09-23T18:29:51.501Z,12.00
2022-09-23T18:34:51.391Z,12.00
2022-09-23T18:39:50.271Z,11.96
2022-09-23T18:44:54.410Z,11.90
2022-09-23T18:50:11.359Z,11.90
2022-09-23T18:55:12.677Z,11.90
2022-09-23T19:00:15.596Z,11.80
2022-09-23T19:05:15.504Z,11.80
2022-09-23T19:10:14.894Z,11.72
2022-09-23T19:15:15.185Z,11.70
2022-09-23T19:20:15.508Z,11.70
2022-09-23T19:25:14.833Z,11.70
2022-09-23T19:30:16.313Z,11.70
2022-09-23T19:35:16.328Z,11.60
2022-09-23T19:40:17.933Z,11.58
2022-09-23T19:45:18.324Z,11.50
2022-09-23T19:50:28.004Z,11.42
2022-09-23T19:55:29.770Z,11.40
2022-09-23T20:00:29.165Z,11.30
2022-09-23T20:05:29.893Z,11.30
2022-09-23T20:10:28.704Z,11.20
2022-09-23T20:15:29.315Z,11.20
2022-09-23T20:20:29.088Z,11.10
2022-09-23T20:25:28.622Z,11.00
2022-09-23T20:30:29.897Z,11.00
2022-09-23T20:35:33.109Z,10.90
2022-09-23T20:40:32.099Z,10.90
2022-09-23T20:45:33.577Z,10.80
2022-09-23T20:50:35.676Z,10.80
2022-09-23T20:55:36.393Z,10.72
2022-09-23T21:00:36.402Z,10.70
2022-09-23T21:05:37.621Z,10.60
2022-09-23T21:10:37.519Z,10.60
2022-09-23T21:15:41.855Z,10.50
2022-09-23T21:20:40.974Z,10.50
2022-09-23T21:25:40.405Z,10.40
2022-09-23T21:30:39.378Z,10.30
2022-09-23T21:35:38.448Z,10.30
2022-09-23T21:40:55.274Z,10.20
2022-09-23T21:45:59.794Z,10.20
2022-09-23T21:51:04.983Z,10.14
2022-09-23T21:56:10.910Z,10.10
2022-09-23T22:01:16.565Z,10.10
2022-09-23T22:06:19.755Z,10.10
2022-09-23T22:11:38.704Z,10.10
2022-09-23T22:16:39.122Z,10.10
2022-09-23T22:21:41.376Z,9.90
2022-09-23T22:26:43.256Z,9.80
2022-09-23T22:31:59.041Z,9.80
2022-09-23T22:36:58.053Z,9.74
2022-09-23T22:41:58.690Z,9.74
2022-09-23T22:46:59.028Z,9.72
2022-09-23T22:51:57.956Z,9.70
2022-09-23T22:56:56.761Z,9.70
2022-09-23T23:01:55.554Z,9.60
2022-09-23T23:06:54.805Z,9.50
2022-09-23T23:11:53.635Z,9.40
2022-09-23T23:16:53.639Z,9.30
2022-09-23T23:21:53.984Z,9.10
2022-09-23T23:26:54.016Z,9.00
2022-09-23T23:31:53.071Z,9.00
2022-09-23T23:36:55.502Z,8.90
2022-09-23T23:41:57.269Z,8.80
2022-09-23T23:46:57.223Z,8.70
2022-09-23T23:51:56.238Z,8.50
2022-09-23T23:56:55.373Z,8.40
